Language selection

My Weather Profile Weather Topics  | 

Southwest Coast: Past 24 Hour Conditions

 

East Chedabucto Bay - 44488

07:00 PM ADT 17 May 2021Buoy position: 45.45N 60.95W
Disclaimer

This table is a summary of hourly weather conditions for the past 24 hours.
Please note that these observations might not always be representative of weather conditions over their associated marine area.

Date / Time
(ADT)
Wind(knots) Wave height(m) Wave period(s) Pressure(kPa) Air tempC) Water tempC)
17 May 2021
19:00 SE 10 gust 11 0.4 3.4 102.6 7 6
18:00 SSE 10 gust 12 0.4 3.3 102.7 7 6
17:00 SSE 12 gust 14 0.5 3.3 102.7 7 5
16:00 SE 12 gust 14 0.4 3.0 102.7 7 5
15:00 SE 13 gust 15 0.5 3.2 102.8 7 6
14:00 ESE 11 gust 14 0.4 3.2 102.8 7 6
13:00 ESE 10 gust 11 0.3 3.4 102.8 6 6
12:00 E 9 gust 11 0.3 3.4 102.9 6 6
11:00 E 7 gust 8 0.3 3.6 102.9 7 6
10:00 ENE 7 gust 9 0.3 3.8 102.9 7 6
9:00 E 7 gust 10 0.3 3.2 102.9 6 6
8:00 ENE 5 gust 6 0.3 3.6 102.9 6 6
7:00 E 6 gust 9 0.3 3.2 102.8 7 6
6:00 SE 11 gust 12 0.4 3.1 102.8 6 6
5:00 ESE 8 gust 10 0.4 3.2 102.8 6 6
4:00 E 8 gust 10 0.3 3.2 102.8 6 6
3:00 ESE 10 gust 11 0.4 2.9 102.8 6 6
2:00 ESE 10 gust 13 0.4 3.1 102.8 6 6
1:00 E 10 gust 11 0.3 2.9 102.8 6 6
0:00 E 11 gust 12 0.3 3.0 102.8 6 6
16 May 2021
23:00 E 10 gust 12 0.3 3.0 102.8 6 6
22:00 E 10 gust 11 0.3 2.9 102.9 6 6
21:00 ENE 10 gust 11 0.3 3.8 102.8 6 6
20:00 ENE 9 gust 11 0.3 4.4 102.8 6 6
19:00 E 8 gust 9 0.3 4.5 102.8 7 6

Zoom-in to make a selection

Map of Atlantic - Newfoundland marine weather areas Banquereau - 44139 East Chedabucto Bay - 44488 West Chedabucto Bay - 44489 Blanc-Sablon Airport Cap Whittle Chevery Natashquan Airport Heath Point Îles de la Madeleine Airport Miscou Island Eskasoni (First Nations) Grand Étang Ingonish Beach North Mountain St.Paul Island J.A. Douglas McCurdy Sydney Airport Charlottetown Airport East Point North Cape Argentia Bonavista Burgeo Cape Race Corner Brook Daniel's Harbour Englee Ferolle Point La Scie Port aux Basques Rocky Harbour Sagona Island St. Anthony Airport St. John's Int'l Airport St. Lawrence Stephenville Airport Twillingate Winterland Branch Hill Wreckhouse Grates Cove Pool's Island Marticot Island Long Pond Cartwright Airport Mary's Harbour
Legend:
buoy Buoy
land station Land Station

Atlantic - Newfoundland Area

Another Region

What we are doing

Date modified: